Terminal Aerodrome Forecast
Issued by NWS Buffalo, NY

Home | Current Version | Previous Version | Text Only | Print | Product List | Glossary On
Versions: 1 2 3 4 5 6 7 8 9 10 11 12 13 14 15 16 17 18 19 20 21 22
000
FTUS41 KBUF 010903 AAA
TAFART
TAF AMD
KART 010903Z 0109/0206 VRB03KT P6SM -RA OVC050
     FM011000 VRB03KT 6SM -RA OVC035
     FM011600 10009KT 6SM -RA OVC030
     FM012000 12010KT P6SM VCSH OVC030
     FM020000 10006KT P6SM VCSH OVC030
     FM020200 09005KT P6SM VCSH OVC020=

USA.gov is the U.S. government's official web portal to all federal, state and local government web resources and services.